sensor_id;sensor_type;location;lat;lon;timestamp;temperature;humidity
63260;DHT22;49390;51.380;0.098;2023-03-04T00:01:36;6.60;95.40
63260;DHT22;49390;51.380;0.098;2023-03-04T00:04:04;6.60;95.40
63260;DHT22;49390;51.380;0.098;2023-03-04T00:06:32;6.60;95.30
63260;DHT22;49390;51.380;0.098;2023-03-04T00:09:00;6.60;95.40
63260;DHT22;49390;51.380;0.098;2023-03-04T00:11:31;6.60;95.40
63260;DHT22;49390;51.380;0.098;2023-03-04T00:13:59;6.50;95.50
63260;DHT22;49390;51.380;0.098;2023-03-04T00:16:27;6.50;95.70
63260;DHT22;49390;51.380;0.098;2023-03-04T00:18:57;6.40;95.90
63260;DHT22;49390;51.380;0.098;2023-03-04T00:21:25;6.40;96.40
63260;DHT22;49390;51.380;0.098;2023-03-04T00:23:56;6.40;96.80
63260;DHT22;49390;51.380;0.098;2023-03-04T00:26:24;6.40;97.30
63260;DHT22;49390;51.380;0.098;2023-03-04T00:28:52;6.30;97.60
63260;DHT22;49390;51.380;0.098;2023-03-04T00:31:20;6.30;98.00
63260;DHT22;49390;51.380;0.098;2023-03-04T00:33:48;6.30;98.20
63260;DHT22;49390;51.380;0.098;2023-03-04T00:36:16;6.30;98.30
63260;DHT22;49390;51.380;0.098;2023-03-04T00:38:47;6.30;98.80
63260;DHT22;49390;51.380;0.098;2023-03-04T00:41:15;6.20;99.30
63260;DHT22;49390;51.380;0.098;2023-03-04T00:43:43;6.30;99.30
63260;DHT22;49390;51.380;0.098;2023-03-04T00:46:10;6.20;99.60
63260;DHT22;49390;51.380;0.098;2023-03-04T00:48:39;6.20;99.90
63260;DHT22;49390;51.380;0.098;2023-03-04T00:51:07;6.20;99.90
63260;DHT22;49390;51.380;0.098;2023-03-04T00:53:35;6.20;99.90
63260;DHT22;49390;51.380;0.098;2023-03-04T00:56:03;6.20;99.90
63260;DHT22;49390;51.380;0.098;2023-03-04T00:58:34;6.20;99.90
63260;DHT22;49390;51.380;0.098;2023-03-04T01:01:02;6.20;99.90
63260;DHT22;49390;51.380;0.098;2023-03-04T01:03:30;6.20;99.90
63260;DHT22;49390;51.380;0.098;2023-03-04T01:05:59;6.20;99.90
63260;DHT22;49390;51.380;0.098;2023-03-04T01:08:27;6.20;99.90
63260;DHT22;49390;51.380;0.098;2023-03-04T01:10:55;6.20;99.90
63260;DHT22;49390;51.380;0.098;2023-03-04T01:13:23;6.20;99.90
63260;DHT22;49390;51.380;0.098;2023-03-04T01:15:51;6.20;99.90
63260;DHT22;49390;51.380;0.098;2023-03-04T01:18:19;6.20;99.90
63260;DHT22;49390;51.380;0.098;2023-03-04T01:20:47;6.20;99.90
63260;DHT22;49390;51.380;0.098;2023-03-04T01:23:15;6.20;99.90
63260;DHT22;49390;51.380;0.098;2023-03-04T01:25:43;6.20;99.90
63260;DHT22;49390;51.380;0.098;2023-03-04T01:28:11;6.20;99.90
63260;DHT22;49390;51.380;0.098;2023-03-04T01:30:40;6.20;99.90
63260;DHT22;49390;51.380;0.098;2023-03-04T01:33:09;6.20;99.90
63260;DHT22;49390;51.380;0.098;2023-03-04T01:35:36;6.20;99.90
63260;DHT22;49390;51.380;0.098;2023-03-04T01:38:05;6.20;99.90
63260;DHT22;49390;51.380;0.098;2023-03-04T01:40:33;6.20;99.90
63260;DHT22;49390;51.380;0.098;2023-03-04T01:43:01;6.20;99.90
63260;DHT22;49390;51.380;0.098;2023-03-04T01:45:30;6.20;99.90
63260;DHT22;49390;51.380;0.098;2023-03-04T01:47:59;6.20;99.90
63260;DHT22;49390;51.380;0.098;2023-03-04T01:50:32;6.20;99.90
63260;DHT22;49390;51.380;0.098;2023-03-04T01:53:02;6.10;99.90
63260;DHT22;49390;51.380;0.098;2023-03-04T01:55:31;6.20;99.90
63260;DHT22;49390;51.380;0.098;2023-03-04T01:58:00;6.20;99.90
63260;DHT22;49390;51.380;0.098;2023-03-04T02:00:30;6.20;99.90
63260;DHT22;49390;51.380;0.098;2023-03-04T02:03:04;6.10;99.90
63260;DHT22;49390;51.380;0.098;2023-03-04T02:05:41;6.10;99.90
63260;DHT22;49390;51.380;0.098;2023-03-04T02:08:11;6.20;99.90
63260;DHT22;49390;51.380;0.098;2023-03-04T02:10:41;6.20;99.90
63260;DHT22;49390;51.380;0.098;2023-03-04T02:13:10;6.20;99.90
63260;DHT22;49390;51.380;0.098;2023-03-04T02:15:39;6.20;99.90
63260;DHT22;49390;51.380;0.098;2023-03-04T02:18:15;6.20;99.90
63260;DHT22;49390;51.380;0.098;2023-03-04T02:26:25;6.10;99.90
63260;DHT22;49390;51.380;0.098;2023-03-04T02:28:57;6.10;99.90
63260;DHT22;49390;51.380;0.098;2023-03-04T02:31:33;6.10;99.90
63260;DHT22;49390;51.380;0.098;2023-03-04T02:34:26;6.10;99.90
63260;DHT22;49390;51.380;0.098;2023-03-04T02:36:53;6.20;99.90
63260;DHT22;49390;51.380;0.098;2023-03-04T02:39:30;6.20;99.90
63260;DHT22;49390;51.380;0.098;2023-03-04T02:42:02;6.20;99.90
63260;DHT22;49390;51.380;0.098;2023-03-04T02:44:43;6.20;99.90
63260;DHT22;49390;51.380;0.098;2023-03-04T02:47:16;6.20;99.90
63260;DHT22;49390;51.380;0.098;2023-03-04T02:49:48;6.20;99.90
63260;DHT22;49390;51.380;0.098;2023-03-04T02:52:19;6.20;99.90
63260;DHT22;49390;51.380;0.098;2023-03-04T02:54:47;6.20;99.90
63260;DHT22;49390;51.380;0.098;2023-03-04T02:57:19;6.10;99.90
63260;DHT22;49390;51.380;0.098;2023-03-04T02:59:52;6.10;99.90
63260;DHT22;49390;51.380;0.098;2023-03-04T03:02:23;6.10;99.90
63260;DHT22;49390;51.380;0.098;2023-03-04T03:04:51;6.00;99.90
63260;DHT22;49390;51.380;0.098;2023-03-04T03:07:20;6.10;99.90
63260;DHT22;49390;51.380;0.098;2023-03-04T03:09:49;6.10;99.90
63260;DHT22;49390;51.380;0.098;2023-03-04T03:12:18;6.10;99.90
63260;DHT22;49390;51.380;0.098;2023-03-04T03:14:46;6.20;99.90
63260;DHT22;49390;51.380;0.098;2023-03-04T03:17:17;6.20;99.90
63260;DHT22;49390;51.380;0.098;2023-03-04T03:19:47;6.20;99.90
63260;DHT22;49390;51.380;0.098;2023-03-04T03:22:15;6.10;99.90
63260;DHT22;49390;51.380;0.098;2023-03-04T03:24:44;6.10;99.90
63260;DHT22;49390;51.380;0.098;2023-03-04T03:27:12;6.10;99.90
63260;DHT22;49390;51.380;0.098;2023-03-04T03:29:40;6.10;99.90
63260;DHT22;49390;51.380;0.098;2023-03-04T03:32:08;6.10;99.90
63260;DHT22;49390;51.380;0.098;2023-03-04T03:34:36;6.10;99.90
63260;DHT22;49390;51.380;0.098;2023-03-04T03:37:03;6.10;99.90
63260;DHT22;49390;51.380;0.098;2023-03-04T03:39:31;6.10;99.90
63260;DHT22;49390;51.380;0.098;2023-03-04T03:41:59;6.10;99.90
63260;DHT22;49390;51.380;0.098;2023-03-04T03:44:28;6.10;99.90
63260;DHT22;49390;51.380;0.098;2023-03-04T03:46:56;6.00;99.90
63260;DHT22;49390;51.380;0.098;2023-03-04T03:49:24;6.10;99.90
63260;DHT22;49390;51.380;0.098;2023-03-04T03:51:52;6.00;99.90
63260;DHT22;49390;51.380;0.098;2023-03-04T03:54:20;6.00;99.90
63260;DHT22;49390;51.380;0.098;2023-03-04T03:56:48;6.00;99.90
63260;DHT22;49390;51.380;0.098;2023-03-04T03:59:16;6.00;99.90
63260;DHT22;49390;51.380;0.098;2023-03-04T04:01:44;6.00;99.90
63260;DHT22;49390;51.380;0.098;2023-03-04T04:04:12;6.00;99.90
63260;DHT22;49390;51.380;0.098;2023-03-04T04:06:40;6.00;99.90
63260;DHT22;49390;51.380;0.098;2023-03-04T04:09:08;6.00;99.90
63260;DHT22;49390;51.380;0.098;2023-03-04T04:11:36;6.10;99.90
63260;DHT22;49390;51.380;0.098;2023-03-04T04:14:04;6.00;99.90
63260;DHT22;49390;51.380;0.098;2023-03-04T04:16:32;6.00;99.90
63260;DHT22;49390;51.380;0.098;2023-03-04T04:19:00;6.00;99.90
63260;DHT22;49390;51.380;0.098;2023-03-04T04:21:28;6.10;99.90
63260;DHT22;49390;51.380;0.098;2023-03-04T04:23:56;6.10;99.90
63260;DHT22;49390;51.380;0.098;2023-03-04T04:26:24;6.20;99.90
63260;DHT22;49390;51.380;0.098;2023-03-04T04:28:52;6.20;99.90
63260;DHT22;49390;51.380;0.098;2023-03-04T04:31:19;6.10;99.90
63260;DHT22;49390;51.380;0.098;2023-03-04T04:33:47;6.20;99.90
63260;DHT22;49390;51.380;0.098;2023-03-04T04:36:15;6.20;99.90
63260;DHT22;49390;51.380;0.098;2023-03-04T04:38:44;6.20;99.90
63260;DHT22;49390;51.380;0.098;2023-03-04T04:41:22;6.20;99.90
63260;DHT22;49390;51.380;0.098;2023-03-04T04:43:51;6.20;99.90
63260;DHT22;49390;51.380;0.098;2023-03-04T04:46:19;6.20;99.90
63260;DHT22;49390;51.380;0.098;2023-03-04T04:48:47;6.20;99.90
63260;DHT22;49390;51.380;0.098;2023-03-04T04:51:15;6.20;99.90
63260;DHT22;49390;51.380;0.098;2023-03-04T04:53:43;6.20;99.90
63260;DHT22;49390;51.380;0.098;2023-03-04T04:56:17;6.20;99.90
63260;DHT22;49390;51.380;0.098;2023-03-04T04:58:46;6.20;99.90
63260;DHT22;49390;51.380;0.098;2023-03-04T05:01:15;6.20;99.90
63260;DHT22;49390;51.380;0.098;2023-03-04T05:03:43;6.20;99.90
63260;DHT22;49390;51.380;0.098;2023-03-04T05:06:13;6.20;99.90
63260;DHT22;49390;51.380;0.098;2023-03-04T05:08:42;6.20;99.90
63260;DHT22;49390;51.380;0.098;2023-03-04T05:11:12;6.20;99.90
63260;DHT22;49390;51.380;0.098;2023-03-04T05:13:40;6.20;99.90
63260;DHT22;49390;51.380;0.098;2023-03-04T05:16:08;6.20;99.90
63260;DHT22;49390;51.380;0.098;2023-03-04T05:18:36;6.30;99.90
63260;DHT22;49390;51.380;0.098;2023-03-04T05:21:07;6.30;99.90
63260;DHT22;49390;51.380;0.098;2023-03-04T05:23:37;6.30;99.90
63260;DHT22;49390;51.380;0.098;2023-03-04T05:26:06;6.30;99.90
63260;DHT22;49390;51.380;0.098;2023-03-04T05:28:35;6.30;99.90
63260;DHT22;49390;51.380;0.098;2023-03-04T05:31:03;6.30;99.90
63260;DHT22;49390;51.380;0.098;2023-03-04T05:33:31;6.30;99.90
63260;DHT22;49390;51.380;0.098;2023-03-04T05:35:59;6.30;99.90
63260;DHT22;49390;51.380;0.098;2023-03-04T05:38:27;6.30;99.90
63260;DHT22;49390;51.380;0.098;2023-03-04T05:41:04;6.30;99.90
63260;DHT22;49390;51.380;0.098;2023-03-04T05:43:34;6.30;99.90
63260;DHT22;49390;51.380;0.098;2023-03-04T05:46:03;6.20;99.90
63260;DHT22;49390;51.380;0.098;2023-03-04T05:48:31;6.20;99.90
63260;DHT22;49390;51.380;0.098;2023-03-04T05:51:00;6.10;99.90
63260;DHT22;49390;51.380;0.098;2023-03-04T05:53:30;6.10;99.90
63260;DHT22;49390;51.380;0.098;2023-03-04T05:56:08;6.10;99.90
63260;DHT22;49390;51.380;0.098;2023-03-04T05:58:40;6.20;99.90
63260;DHT22;49390;51.380;0.098;2023-03-04T06:01:08;6.20;99.90
63260;DHT22;49390;51.380;0.098;2023-03-04T06:03:36;6.10;99.90
63260;DHT22;49390;51.380;0.098;2023-03-04T06:06:04;6.10;99.90
63260;DHT22;49390;51.380;0.098;2023-03-04T06:08:32;6.20;99.90
63260;DHT22;49390;51.380;0.098;2023-03-04T06:11:00;6.20;99.90
63260;DHT22;49390;51.380;0.098;2023-03-04T06:13:29;6.20;99.90
63260;DHT22;49390;51.380;0.098;2023-03-04T06:15:58;6.20;99.90
63260;DHT22;49390;51.380;0.098;2023-03-04T06:18:28;6.10;99.90
63260;DHT22;49390;51.380;0.098;2023-03-04T06:21:00;6.20;99.90
63260;DHT22;49390;51.380;0.098;2023-03-04T06:23:30;6.10;99.90
63260;DHT22;49390;51.380;0.098;2023-03-04T06:26:00;6.20;99.90
63260;DHT22;49390;51.380;0.098;2023-03-04T06:28:28;6.10;99.90
63260;DHT22;49390;51.380;0.098;2023-03-04T06:30:57;6.10;99.90
63260;DHT22;49390;51.380;0.098;2023-03-04T06:33:25;6.10;99.90
63260;DHT22;49390;51.380;0.098;2023-03-04T06:35:54;6.10;99.90
63260;DHT22;49390;51.380;0.098;2023-03-04T06:38:23;6.10;99.90
63260;DHT22;49390;51.380;0.098;2023-03-04T06:40:54;6.10;99.90
63260;DHT22;49390;51.380;0.098;2023-03-04T06:43:24;6.10;99.90
63260;DHT22;49390;51.380;0.098;2023-03-04T06:45:52;6.10;99.90
63260;DHT22;49390;51.380;0.098;2023-03-04T06:48:20;6.10;99.90
63260;DHT22;49390;51.380;0.098;2023-03-04T06:50:48;6.10;99.90
63260;DHT22;49390;51.380;0.098;2023-03-04T06:53:16;6.10;99.90
63260;DHT22;49390;51.380;0.098;2023-03-04T06:55:44;6.10;99.90
63260;DHT22;49390;51.380;0.098;2023-03-04T06:58:13;6.10;99.90
63260;DHT22;49390;51.380;0.098;2023-03-04T07:00:41;6.10;99.90
63260;DHT22;49390;51.380;0.098;2023-03-04T07:03:11;6.10;99.90
63260;DHT22;49390;51.380;0.098;2023-03-04T07:05:39;6.10;99.90
63260;DHT22;49390;51.380;0.098;2023-03-04T07:08:07;6.10;99.90
63260;DHT22;49390;51.380;0.098;2023-03-04T07:10:35;6.10;99.90
63260;DHT22;49390;51.380;0.098;2023-03-04T07:13:03;6.10;99.90
63260;DHT22;49390;51.380;0.098;2023-03-04T07:15:31;6.10;99.90
63260;DHT22;49390;51.380;0.098;2023-03-04T07:17:59;6.10;99.90
63260;DHT22;49390;51.380;0.098;2023-03-04T07:20:26;6.20;99.90
63260;DHT22;49390;51.380;0.098;2023-03-04T07:22:58;6.20;99.90
63260;DHT22;49390;51.380;0.098;2023-03-04T07:25:25;6.20;99.90
63260;DHT22;49390;51.380;0.098;2023-03-04T07:27:54;6.20;99.90
63260;DHT22;49390;51.380;0.098;2023-03-04T07:30:21;6.20;99.90
63260;DHT22;49390;51.380;0.098;2023-03-04T07:32:52;6.20;99.90
63260;DHT22;49390;51.380;0.098;2023-03-04T07:35:20;6.10;99.90
63260;DHT22;49390;51.380;0.098;2023-03-04T07:37:48;6.10;99.90
63260;DHT22;49390;51.380;0.098;2023-03-04T07:40:16;6.00;99.90
63260;DHT22;49390;51.380;0.098;2023-03-04T07:42:49;6.00;99.90
63260;DHT22;49390;51.380;0.098;2023-03-04T07:45:17;6.00;99.90
63260;DHT22;49390;51.380;0.098;2023-03-04T07:47:45;6.00;99.90
63260;DHT22;49390;51.380;0.098;2023-03-04T07:50:13;6.00;99.90
63260;DHT22;49390;51.380;0.098;2023-03-04T07:52:45;6.00;99.90
63260;DHT22;49390;51.380;0.098;2023-03-04T07:55:14;6.10;99.90
63260;DHT22;49390;51.380;0.098;2023-03-04T07:57:44;6.10;99.90
63260;DHT22;49390;51.380;0.098;2023-03-04T08:00:15;6.00;99.90
63260;DHT22;49390;51.380;0.098;2023-03-04T08:02:43;6.00;99.90
63260;DHT22;49390;51.380;0.098;2023-03-04T08:05:11;6.00;99.90
63260;DHT22;49390;51.380;0.098;2023-03-04T08:07:39;6.10;99.90
63260;DHT22;49390;51.380;0.098;2023-03-04T08:10:07;6.10;99.90
63260;DHT22;49390;51.380;0.098;2023-03-04T08:12:36;6.10;99.90
63260;DHT22;49390;51.380;0.098;2023-03-04T08:15:04;6.20;99.90
63260;DHT22;49390;51.380;0.098;2023-03-04T08:17:32;6.30;99.90
63260;DHT22;49390;51.380;0.098;2023-03-04T08:20:00;6.30;99.90
63260;DHT22;49390;51.380;0.098;2023-03-04T08:22:28;6.30;99.90
63260;DHT22;49390;51.380;0.098;2023-03-04T08:24:56;6.40;99.90
63260;DHT22;49390;51.380;0.098;2023-03-04T08:27:24;6.30;99.90
63260;DHT22;49390;51.380;0.098;2023-03-04T08:29:52;6.30;99.90
63260;DHT22;49390;51.380;0.098;2023-03-04T08:32:20;6.30;99.90
63260;DHT22;49390;51.380;0.098;2023-03-04T08:34:48;6.30;99.90
63260;DHT22;49390;51.380;0.098;2023-03-04T08:37:18;6.30;99.90
63260;DHT22;49390;51.380;0.098;2023-03-04T08:39:46;6.40;99.90
63260;DHT22;49390;51.380;0.098;2023-03-04T08:42:14;6.40;99.90
63260;DHT22;49390;51.380;0.098;2023-03-04T08:44:42;6.40;99.90
63260;DHT22;49390;51.380;0.098;2023-03-04T08:47:10;6.40;99.90
63260;DHT22;49390;51.380;0.098;2023-03-04T08:49:38;6.50;99.90
63260;DHT22;49390;51.380;0.098;2023-03-04T08:52:07;6.60;99.90
63260;DHT22;49390;51.380;0.098;2023-03-04T08:54:35;6.70;99.90
63260;DHT22;49390;51.380;0.098;2023-03-04T08:57:03;6.90;99.90
63260;DHT22;49390;51.380;0.098;2023-03-04T08:59:36;7.00;99.90
63260;DHT22;49390;51.380;0.098;2023-03-04T09:02:05;7.10;99.90
63260;DHT22;49390;51.380;0.098;2023-03-04T09:04:33;7.10;99.90
63260;DHT22;49390;51.380;0.098;2023-03-04T09:07:01;7.20;99.90
63260;DHT22;49390;51.380;0.098;2023-03-04T09:09:29;7.20;99.90
63260;DHT22;49390;51.380;0.098;2023-03-04T09:11:57;7.30;99.90
63260;DHT22;49390;51.380;0.098;2023-03-04T09:14:25;7.30;99.90
63260;DHT22;49390;51.380;0.098;2023-03-04T09:16:53;7.40;99.90
63260;DHT22;49390;51.380;0.098;2023-03-04T09:19:21;7.40;99.90
63260;DHT22;49390;51.380;0.098;2023-03-04T09:21:49;7.40;99.90
63260;DHT22;49390;51.380;0.098;2023-03-04T09:24:19;7.40;99.90
63260;DHT22;49390;51.380;0.098;2023-03-04T09:26:52;7.50;99.90
63260;DHT22;49390;51.380;0.098;2023-03-04T09:29:20;7.50;99.90
63260;DHT22;49390;51.380;0.098;2023-03-04T09:31:49;7.50;99.90
63260;DHT22;49390;51.380;0.098;2023-03-04T09:34:16;7.50;99.90
63260;DHT22;49390;51.380;0.098;2023-03-04T09:36:45;7.60;99.90
63260;DHT22;49390;51.380;0.098;2023-03-04T09:39:13;7.50;99.90
63260;DHT22;49390;51.380;0.098;2023-03-04T09:41:45;7.50;99.90
63260;DHT22;49390;51.380;0.098;2023-03-04T09:44:33;7.50;99.90
63260;DHT22;49390;51.380;0.098;2023-03-04T09:47:06;7.50;99.90
63260;DHT22;49390;51.380;0.098;2023-03-04T09:49:52;7.50;99.90
63260;DHT22;49390;51.380;0.098;2023-03-04T09:52:25;7.50;99.90
63260;DHT22;49390;51.380;0.098;2023-03-04T10:05:57;7.90;99.90
63260;DHT22;49390;51.380;0.098;2023-03-04T10:24:59;8.00;99.90
63260;DHT22;49390;51.380;0.098;2023-03-04T10:27:28;8.00;99.90
63260;DHT22;49390;51.380;0.098;2023-03-04T10:29:59;8.10;99.90
63260;DHT22;49390;51.380;0.098;2023-03-04T10:32:27;8.20;99.90
63260;DHT22;49390;51.380;0.098;2023-03-04T10:34:55;8.30;99.90
63260;DHT22;49390;51.380;0.098;2023-03-04T10:37:23;8.40;99.90
63260;DHT22;49390;51.380;0.098;2023-03-04T10:39:51;8.50;99.90
63260;DHT22;49390;51.380;0.098;2023-03-04T10:42:25;8.50;99.90
63260;DHT22;49390;51.380;0.098;2023-03-04T10:44:59;8.60;99.90
63260;DHT22;49390;51.380;0.098;2023-03-04T10:47:29;8.70;99.90
63260;DHT22;49390;51.380;0.098;2023-03-04T10:50:00;8.80;99.90
63260;DHT22;49390;51.380;0.098;2023-03-04T10:52:29;8.80;99.90
63260;DHT22;49390;51.380;0.098;2023-03-04T10:55:22;8.80;99.90
63260;DHT22;49390;51.380;0.098;2023-03-04T10:57:50;8.80;99.90
63260;DHT22;49390;51.380;0.098;2023-03-04T11:00:32;8.80;99.90
63260;DHT22;49390;51.380;0.098;2023-03-04T11:03:29;8.70;99.90
63260;DHT22;49390;51.380;0.098;2023-03-04T11:06:23;8.60;99.90
63260;DHT22;49390;51.380;0.098;2023-03-04T11:08:58;8.60;99.90
63260;DHT22;49390;51.380;0.098;2023-03-04T11:11:31;8.60;99.90
63260;DHT22;49390;51.380;0.098;2023-03-04T11:16:56;8.70;99.90
63260;DHT22;49390;51.380;0.098;2023-03-04T11:19:36;8.70;99.90
63260;DHT22;49390;51.380;0.098;2023-03-04T11:22:05;8.60;99.90
63260;DHT22;49390;51.380;0.098;2023-03-04T11:24:33;8.60;99.90
63260;DHT22;49390;51.380;0.098;2023-03-04T11:27:16;8.60;99.90
63260;DHT22;49390;51.380;0.098;2023-03-04T11:29:52;8.50;99.90
63260;DHT22;49390;51.380;0.098;2023-03-04T11:32:29;8.30;99.90
63260;DHT22;49390;51.380;0.098;2023-03-04T11:41:05;8.00;99.90
63260;DHT22;49390;51.380;0.098;2023-03-04T11:43:38;8.00;99.90
63260;DHT22;49390;51.380;0.098;2023-03-04T11:54:41;8.40;99.90
63260;DHT22;49390;51.380;0.098;2023-03-04T12:06:05;8.40;99.90
63260;DHT22;49390;51.380;0.098;2023-03-04T12:19:20;8.40;99.90
63260;DHT22;49390;51.380;0.098;2023-03-04T12:22:25;8.40;99.90
63260;DHT22;49390;51.380;0.098;2023-03-04T12:25:14;8.40;99.90
63260;DHT22;49390;51.380;0.098;2023-03-04T12:50:06;8.60;97.40
63260;DHT22;49390;51.380;0.098;2023-03-04T12:55:21;8.50;96.40
63260;DHT22;49390;51.380;0.098;2023-03-04T12:57:54;8.50;96.20
63260;DHT22;49390;51.380;0.098;2023-03-04T13:00:30;8.50;96.10
63260;DHT22;49390;51.380;0.098;2023-03-04T13:03:17;8.50;96.10
63260;DHT22;49390;51.380;0.098;2023-03-04T13:16:47;8.70;91.30
63260;DHT22;49390;51.380;0.098;2023-03-04T13:38:21;8.40;91.40
63260;DHT22;49390;51.380;0.098;2023-03-04T13:43:57;8.40;92.00
63260;DHT22;49390;51.380;0.098;2023-03-04T13:56:36;8.40;90.60
63260;DHT22;49390;51.380;0.098;2023-03-04T14:04:19;8.30;91.20
63260;DHT22;49390;51.380;0.098;2023-03-04T14:06:53;8.30;91.60
63260;DHT22;49390;51.380;0.098;2023-03-04T14:09:30;8.40;91.50
63260;DHT22;49390;51.380;0.098;2023-03-04T14:12:02;8.30;91.30
63260;DHT22;49390;51.380;0.098;2023-03-04T14:14:43;8.50;91.20
63260;DHT22;49390;51.380;0.098;2023-03-04T14:17:22;8.50;90.20
63260;DHT22;49390;51.380;0.098;2023-03-04T14:20:20;8.40;90.20
63260;DHT22;49390;51.380;0.098;2023-03-04T14:22:50;8.30;90.20
63260;DHT22;49390;51.380;0.098;2023-03-04T14:25:27;8.30;90.20
63260;DHT22;49390;51.380;0.098;2023-03-04T14:28:12;8.30;90.50
63260;DHT22;49390;51.380;0.098;2023-03-04T14:30:55;8.30;90.40
63260;DHT22;49390;51.380;0.098;2023-03-04T14:33:26;8.40;90.60
63260;DHT22;49390;51.380;0.098;2023-03-04T14:36:05;8.40;90.40
63260;DHT22;49390;51.380;0.098;2023-03-04T14:38:44;8.50;90.10
63260;DHT22;49390;51.380;0.098;2023-03-04T14:41:53;8.60;89.40
63260;DHT22;49390;51.380;0.098;2023-03-04T14:45:52;8.70;86.60
63260;DHT22;49390;51.380;0.098;2023-03-04T14:48:56;8.70;86.70
63260;DHT22;49390;51.380;0.098;2023-03-04T14:51:56;8.70;86.10
63260;DHT22;49390;51.380;0.098;2023-03-04T14:57:15;8.70;85.20
63260;DHT22;49390;51.380;0.098;2023-03-04T15:01:01;8.60;84.90
63260;DHT22;49390;51.380;0.098;2023-03-04T15:03:26;8.60;85.00
63260;DHT22;49390;51.380;0.098;2023-03-04T15:06:17;8.40;85.40
63260;DHT22;49390;51.380;0.098;2023-03-04T15:09:00;8.40;86.30
63260;DHT22;49390;51.380;0.098;2023-03-04T15:12:02;8.40;86.90
63260;DHT22;49390;51.380;0.098;2023-03-04T15:14:46;8.40;87.40
63260;DHT22;49390;51.380;0.098;2023-03-04T15:17:39;8.50;87.80
63260;DHT22;49390;51.380;0.098;2023-03-04T15:25:16;8.50;88.10
63260;DHT22;49390;51.380;0.098;2023-03-04T15:27:48;8.40;87.80
63260;DHT22;49390;51.380;0.098;2023-03-04T15:30:24;8.40;87.60
63260;DHT22;49390;51.380;0.098;2023-03-04T15:32:56;8.40;87.70
63260;DHT22;49390;51.380;0.098;2023-03-04T15:35:29;8.40;87.80
63260;DHT22;49390;51.380;0.098;2023-03-04T15:37:59;8.40;87.90
63260;DHT22;49390;51.380;0.098;2023-03-04T15:43:04;8.40;87.00
63260;DHT22;49390;51.380;0.098;2023-03-04T15:45:35;8.30;85.30
63260;DHT22;49390;51.380;0.098;2023-03-04T15:48:10;8.30;84.60
63260;DHT22;49390;51.380;0.098;2023-03-04T15:50:42;8.20;85.00
63260;DHT22;49390;51.380;0.098;2023-03-04T15:53:31;8.20;85.50
63260;DHT22;49390;51.380;0.098;2023-03-04T15:56:02;8.20;85.90
63260;DHT22;49390;51.380;0.098;2023-03-04T15:58:31;8.10;86.30
63260;DHT22;49390;51.380;0.098;2023-03-04T16:01:03;8.10;86.70
63260;DHT22;49390;51.380;0.098;2023-03-04T16:03:34;8.10;87.40
63260;DHT22;49390;51.380;0.098;2023-03-04T16:06:03;8.10;87.80
63260;DHT22;49390;51.380;0.098;2023-03-04T16:08:33;8.20;88.30
63260;DHT22;49390;51.380;0.098;2023-03-04T16:11:01;8.20;88.60
63260;DHT22;49390;51.380;0.098;2023-03-04T16:13:29;8.20;88.60
63260;DHT22;49390;51.380;0.098;2023-03-04T16:15:57;8.20;89.00
63260;DHT22;49390;51.380;0.098;2023-03-04T16:18:26;8.20;88.40
63260;DHT22;49390;51.380;0.098;2023-03-04T16:20:54;8.20;87.90
63260;DHT22;49390;51.380;0.098;2023-03-04T16:23:23;8.30;86.40
63260;DHT22;49390;51.380;0.098;2023-03-04T16:25:54;8.20;86.50
63260;DHT22;49390;51.380;0.098;2023-03-04T16:28:26;8.20;86.50
63260;DHT22;49390;51.380;0.098;2023-03-04T16:30:57;8.20;86.60
63260;DHT22;49390;51.380;0.098;2023-03-04T16:33:31;8.20;86.50
63260;DHT22;49390;51.380;0.098;2023-03-04T16:36:00;8.20;86.60
63260;DHT22;49390;51.380;0.098;2023-03-04T16:38:31;8.10;86.80
63260;DHT22;49390;51.380;0.098;2023-03-04T16:41:04;8.20;87.10
63260;DHT22;49390;51.380;0.098;2023-03-04T16:43:40;8.20;87.20
63260;DHT22;49390;51.380;0.098;2023-03-04T16:46:13;8.20;87.50
63260;DHT22;49390;51.380;0.098;2023-03-04T16:48:42;8.20;87.30
63260;DHT22;49390;51.380;0.098;2023-03-04T16:51:16;8.10;86.60
63260;DHT22;49390;51.380;0.098;2023-03-04T16:53:54;8.10;86.50
63260;DHT22;49390;51.380;0.098;2023-03-04T16:56:26;8.00;87.00
63260;DHT22;49390;51.380;0.098;2023-03-04T16:58:54;8.00;87.50
63260;DHT22;49390;51.380;0.098;2023-03-04T17:01:25;8.00;87.70
63260;DHT22;49390;51.380;0.098;2023-03-04T17:03:54;8.00;87.70
63260;DHT22;49390;51.380;0.098;2023-03-04T17:06:23;8.00;87.70
63260;DHT22;49390;51.380;0.098;2023-03-04T17:08:51;8.00;87.80
63260;DHT22;49390;51.380;0.098;2023-03-04T17:11:22;8.00;87.40
63260;DHT22;49390;51.380;0.098;2023-03-04T17:13:50;8.00;87.20
63260;DHT22;49390;51.380;0.098;2023-03-04T17:16:18;7.90;87.40
63260;DHT22;49390;51.380;0.098;2023-03-04T17:18:47;7.90;87.60
63260;DHT22;49390;51.380;0.098;2023-03-04T17:21:18;7.90;87.80
63260;DHT22;49390;51.380;0.098;2023-03-04T17:23:47;7.90;88.10
63260;DHT22;49390;51.380;0.098;2023-03-04T17:26:16;7.90;88.50
63260;DHT22;49390;51.380;0.098;2023-03-04T17:28:50;7.90;88.90
63260;DHT22;49390;51.380;0.098;2023-03-04T17:31:19;7.90;89.40
63260;DHT22;49390;51.380;0.098;2023-03-04T17:33:48;7.90;89.50
63260;DHT22;49390;51.380;0.098;2023-03-04T17:36:17;7.90;89.50
63260;DHT22;49390;51.380;0.098;2023-03-04T17:38:46;7.90;89.70
63260;DHT22;49390;51.380;0.098;2023-03-04T17:41:14;7.90;90.00
63260;DHT22;49390;51.380;0.098;2023-03-04T17:43:47;7.90;89.70
63260;DHT22;49390;51.380;0.098;2023-03-04T17:46:17;7.90;88.60
63260;DHT22;49390;51.380;0.098;2023-03-04T17:48:46;7.80;86.90
63260;DHT22;49390;51.380;0.098;2023-03-04T17:51:14;7.80;86.50
63260;DHT22;49390;51.380;0.098;2023-03-04T17:53:42;7.70;86.60
63260;DHT22;49390;51.380;0.098;2023-03-04T17:56:10;7.70;86.80
63260;DHT22;49390;51.380;0.098;2023-03-04T17:58:39;7.70;86.90
63260;DHT22;49390;51.380;0.098;2023-03-04T18:01:19;7.70;87.00
63260;DHT22;49390;51.380;0.098;2023-03-04T18:03:47;7.70;87.00
63260;DHT22;49390;51.380;0.098;2023-03-04T18:06:15;7.70;86.90
63260;DHT22;49390;51.380;0.098;2023-03-04T18:08:44;7.80;87.30
63260;DHT22;49390;51.380;0.098;2023-03-04T18:11:12;7.80;87.30
63260;DHT22;49390;51.380;0.098;2023-03-04T18:13:43;7.70;87.00
63260;DHT22;49390;51.380;0.098;2023-03-04T18:16:12;7.70;87.00
63260;DHT22;49390;51.380;0.098;2023-03-04T18:18:43;7.70;86.80
63260;DHT22;49390;51.380;0.098;2023-03-04T18:21:11;7.70;86.80
63260;DHT22;49390;51.380;0.098;2023-03-04T18:23:40;7.70;86.80
63260;DHT22;49390;51.380;0.098;2023-03-04T18:26:08;7.70;86.90
63260;DHT22;49390;51.380;0.098;2023-03-04T18:28:36;7.70;87.30
63260;DHT22;49390;51.380;0.098;2023-03-04T18:31:04;7.60;87.50
63260;DHT22;49390;51.380;0.098;2023-03-04T18:33:32;7.70;87.80
63260;DHT22;49390;51.380;0.098;2023-03-04T18:36:03;7.70;87.90
63260;DHT22;49390;51.380;0.098;2023-03-04T18:38:32;7.70;88.20
63260;DHT22;49390;51.380;0.098;2023-03-04T18:41:04;7.70;88.00
63260;DHT22;49390;51.380;0.098;2023-03-04T18:43:35;7.60;87.70
63260;DHT22;49390;51.380;0.098;2023-03-04T18:48:44;7.60;87.50